Terminal Aerodrome Forecast
Issued by NWS

Home | Current Version | Previous Version | Graphics & Text | Print | Product List | Glossary On
Versions: 1 2 3 4 5 6 7 8 9 10 11 12 13
000
FTUS43 KIWX 172300
TAFSBN
TAF
KSBN 172339Z 1800/1824 24012G20KT P6SM SCT050 BKN100
     FM180100 24012KT P6SM BKN050
     FM180300 34005KT P6SM OVC050
      TEMPO 1805/1808 -SHRA
     FM181000 VRB04KT 6SM BR BKN040
     FM181300 34008KT P6SM BKN040=

USA.gov is the U.S. government's official web portal to all federal, state and local government web resources and services.